createdAt,value
2019-02-04T00:00:05.729Z,-0.10
2019-02-04T00:01:04.786Z,-0.10
2019-02-04T00:02:07.427Z,-0.10
2019-02-04T00:03:10.422Z,-0.20
2019-02-04T00:04:11.460Z,-0.10
2019-02-04T00:05:05.632Z,-0.20
2019-02-04T00:06:07.247Z,-0.20
2019-02-04T00:07:05.253Z,-0.20
2019-02-04T00:08:05.190Z,-0.20
2019-02-04T00:09:07.840Z,-0.20
2019-02-04T00:10:04.750Z,-0.30
2019-02-04T00:11:04.839Z,-0.20
2019-02-04T00:12:07.373Z,-0.30
2019-02-04T00:13:05.344Z,-0.30
2019-02-04T00:14:07.919Z,-0.30
2019-02-04T00:15:04.802Z,-0.30
2019-02-04T00:16:07.948Z,-0.30
2019-02-04T00:17:07.545Z,-0.40
2019-02-04T00:18:05.526Z,-0.40
2019-02-04T00:19:08.130Z,-0.40
2019-02-04T00:20:05.138Z,-0.40
2019-02-04T00:21:05.277Z,-0.40
2019-02-04T00:22:05.350Z,-0.50
2019-02-04T00:23:05.410Z,-0.50
2019-02-04T00:24:07.832Z,-0.50
2019-02-04T00:25:04.898Z,-0.50
2019-02-04T00:26:04.921Z,-0.50
2019-02-04T00:27:07.517Z,-0.50
2019-02-04T00:28:08.193Z,-0.50
2019-02-04T00:29:05.126Z,-0.50
2019-02-04T00:30:04.855Z,-0.50
2019-02-04T00:31:05.116Z,-0.50
2019-02-04T00:32:05.392Z,-0.50
2019-02-04T00:33:05.511Z,-0.50
2019-02-04T00:34:05.564Z,-0.50
2019-02-04T00:35:08.136Z,-0.50
2019-02-04T00:36:07.665Z,-0.50
2019-02-04T00:37:08.196Z,-0.50
2019-02-04T00:38:05.074Z,-0.50
2019-02-04T00:39:05.351Z,-0.50
2019-02-04T00:40:05.503Z,-0.50
2019-02-04T00:41:08.127Z,-0.50
2019-02-04T00:42:05.059Z,-0.50
2019-02-04T00:43:05.184Z,-0.50
2019-02-04T00:44:05.150Z,-0.50
2019-02-04T00:45:05.211Z,-0.40
2019-02-04T00:46:05.218Z,-0.50
2019-02-04T00:47:04.745Z,-0.40
2019-02-04T00:48:04.910Z,-0.40
2019-02-04T00:49:04.943Z,-0.40
2019-02-04T00:50:04.961Z,-0.40
2019-02-04T00:51:04.999Z,-0.40
2019-02-04T00:52:05.034Z,-0.40
2019-02-04T00:53:05.099Z,-0.40
2019-02-04T00:54:05.122Z,-0.40
2019-02-04T00:55:04.730Z,-0.40
2019-02-04T00:56:09.820Z,-0.40
2019-02-04T00:57:04.770Z,-0.40
2019-02-04T00:58:04.832Z,-0.40
2019-02-04T00:59:04.993Z,-0.40
2019-02-04T01:00:05.032Z,-0.40
2019-02-04T01:01:05.156Z,-0.40
2019-02-04T01:02:05.346Z,-0.40
2019-02-04T01:03:05.047Z,-0.50
2019-02-04T01:04:05.167Z,-0.40
2019-02-04T01:05:05.547Z,-0.50
2019-02-04T01:06:05.597Z,-0.40
2019-02-04T01:07:05.769Z,-0.50
2019-02-04T01:08:07.515Z,-0.50
2019-02-04T01:09:07.970Z,-0.50
2019-02-04T01:10:04.926Z,-0.50
2019-02-04T01:11:08.034Z,-0.50
2019-02-04T01:12:07.451Z,-0.50
2019-02-04T01:13:05.435Z,-0.50
2019-02-04T01:14:08.226Z,-0.60
2019-02-04T01:15:05.177Z,-0.50
2019-02-04T01:16:05.246Z,-0.60
2019-02-04T01:17:05.296Z,-0.60
2019-02-04T01:18:05.358Z,-0.60
2019-02-04T01:19:07.771Z,-0.60
2019-02-04T01:20:04.687Z,-0.60
2019-02-04T01:21:04.704Z,-0.70
2019-02-04T01:22:04.781Z,-0.60
2019-02-04T01:23:07.396Z,-0.70
2019-02-04T01:24:05.312Z,-0.70
2019-02-04T01:25:05.591Z,-0.70
2019-02-04T01:26:07.183Z,-0.80
2019-02-04T01:27:07.406Z,-0.80
2019-02-04T01:28:05.494Z,-0.80
2019-02-04T01:29:05.614Z,-0.80
2019-02-04T01:30:05.195Z,-0.80
2019-02-04T01:31:07.833Z,-0.90
2019-02-04T01:32:07.440Z,-0.90
2019-02-04T01:33:08.122Z,-0.90
2019-02-04T01:34:10.119Z,-0.90
2019-02-04T01:35:07.983Z,-0.90
2019-02-04T01:36:04.940Z,-0.90
2019-02-04T01:37:10.192Z,-1.00
2019-02-04T01:38:07.686Z,-1.00
2019-02-04T01:39:06.856Z,-1.00
2019-02-04T01:40:07.402Z,-1.10
2019-02-04T01:41:07.757Z,-1.10
2019-02-04T01:42:05.651Z,-1.10
2019-02-04T01:43:05.286Z,-1.20
2019-02-04T01:44:05.422Z,-1.20
2019-02-04T01:45:05.480Z,-1.30
2019-02-04T01:46:05.528Z,-1.30
2019-02-04T01:47:14.290Z,-1.30
2019-02-04T01:48:04.907Z,-1.30
2019-02-04T01:49:04.904Z,-1.40
2019-02-04T01:50:05.002Z,-1.40
2019-02-04T01:51:05.063Z,-1.40
2019-02-04T01:52:10.238Z,-1.50
2019-02-04T01:53:05.155Z,-1.50
2019-02-04T01:54:05.158Z,-1.50
2019-02-04T01:55:05.001Z,-1.50
2019-02-04T01:56:05.036Z,-1.50
2019-02-04T01:57:08.892Z,-1.60
2019-02-04T01:58:04.975Z,-1.60
2019-02-04T01:59:07.293Z,-1.60
2019-02-04T02:00:05.274Z,-1.60
2019-02-04T02:01:05.013Z,-1.70
2019-02-04T02:02:05.072Z,-1.70
2019-02-04T02:03:05.076Z,-1.70
2019-02-04T02:04:07.668Z,-1.70
2019-02-04T02:05:05.564Z,-1.70
2019-02-04T02:06:07.660Z,-1.70
2019-02-04T02:07:04.649Z,-1.70
2019-02-04T02:08:04.681Z,-1.70
2019-02-04T02:09:09.762Z,-1.80
2019-02-04T02:10:04.696Z,-1.80
2019-02-04T02:11:04.786Z,-1.80
2019-02-04T02:12:04.941Z,-1.80
2019-02-04T02:13:04.972Z,-1.80
2019-02-04T02:14:05.509Z,-1.80
2019-02-04T02:15:08.357Z,-1.90
2019-02-04T02:16:10.519Z,-1.90
2019-02-04T02:17:05.688Z,-1.90
2019-02-04T02:18:04.755Z,-1.90
2019-02-04T02:19:04.868Z,-1.90
2019-02-04T02:20:05.239Z,-2.00
2019-02-04T02:21:10.464Z,-1.90
2019-02-04T02:22:05.393Z,-2.00
2019-02-04T02:23:05.426Z,-2.00
2019-02-04T02:24:05.555Z,-2.00
2019-02-04T02:25:05.632Z,-2.00
2019-02-04T02:26:07.276Z,-2.00
2019-02-04T02:27:05.205Z,-2.00
2019-02-04T02:28:05.440Z,-2.00
2019-02-04T02:29:05.685Z,-2.00
2019-02-04T02:30:07.825Z,-2.00
2019-02-04T02:31:05.384Z,-2.00
2019-02-04T02:32:05.500Z,-2.00
2019-02-04T02:33:05.618Z,-2.00
2019-02-04T02:34:04.711Z,-2.00
2019-02-04T02:35:07.354Z,-2.10
2019-02-04T02:36:07.808Z,-2.00
2019-02-04T02:37:04.849Z,-2.10
2019-02-04T02:38:08.042Z,-2.10
2019-02-04T02:39:04.950Z,-2.10
2019-02-04T02:40:07.614Z,-2.20
2019-02-04T02:41:07.202Z,-2.20
2019-02-04T02:42:07.681Z,-2.30
2019-02-04T02:43:07.411Z,-2.20
2019-02-04T02:44:07.880Z,-2.30
2019-02-04T02:45:04.845Z,-2.30
2019-02-04T02:46:05.479Z,-2.30
2019-02-04T02:47:08.168Z,-2.30
2019-02-04T02:48:04.991Z,-2.40
2019-02-04T02:49:07.639Z,-2.40
2019-02-04T02:50:05.458Z,-2.40
2019-02-04T02:51:08.224Z,-2.40
2019-02-04T02:52:07.749Z,-2.40
2019-02-04T02:53:07.361Z,-2.40
2019-02-04T02:54:05.135Z,-2.50
2019-02-04T02:55:05.378Z,-2.50
2019-02-04T02:56:05.590Z,-2.50
2019-02-04T02:57:07.301Z,-2.50
2019-02-04T02:58:05.271Z,-2.60
2019-02-04T02:59:05.430Z,-2.60
2019-02-04T03:00:05.615Z,-2.60
2019-02-04T03:01:05.095Z,-2.60
2019-02-04T03:02:05.391Z,-2.60
2019-02-04T03:03:05.541Z,-2.60
2019-02-04T03:04:08.142Z,-2.70
2019-02-04T03:05:07.574Z,-2.70
2019-02-04T03:06:05.459Z,-2.70
2019-02-04T03:07:05.514Z,-2.60
2019-02-04T03:08:05.601Z,-2.70
2019-02-04T03:09:05.062Z,-2.60
2019-02-04T03:10:07.714Z,-2.70
2019-02-04T03:11:04.694Z,-2.70
2019-02-04T03:12:07.277Z,-2.60
2019-02-04T03:13:07.774Z,-2.60
2019-02-04T03:14:04.698Z,-2.70
2019-02-04T03:15:04.819Z,-2.60
2019-02-04T03:16:04.900Z,-2.60
2019-02-04T03:17:05.576Z,-2.60
2019-02-04T03:18:04.774Z,-2.60
2019-02-04T03:19:04.825Z,-2.60
2019-02-04T03:20:04.890Z,-2.70
2019-02-04T03:21:07.615Z,-2.70
2019-02-04T03:22:08.144Z,-2.70
2019-02-04T03:23:05.166Z,-2.70
2019-02-04T03:24:05.238Z,-2.70
2019-02-04T03:25:09.987Z,-2.70
2019-02-04T03:26:04.718Z,-2.70
2019-02-04T03:27:04.752Z,-2.70
2019-02-04T03:28:09.913Z,-2.70
2019-02-04T03:29:12.470Z,-2.80
2019-02-04T03:30:07.924Z,-2.70
2019-02-04T03:31:07.478Z,-2.80
2019-02-04T03:32:05.501Z,-2.80
2019-02-04T03:33:05.208Z,-2.80
2019-02-04T03:34:10.482Z,-2.80
2019-02-04T03:35:08.068Z,-2.80
2019-02-04T03:36:05.055Z,-2.80
2019-02-04T03:37:05.226Z,-2.80
2019-02-04T03:38:05.290Z,-2.80
2019-02-04T03:39:10.572Z,-2.80
2019-02-04T03:40:05.504Z,-2.70
2019-02-04T03:41:05.227Z,-2.80
2019-02-04T03:42:07.875Z,-2.80
2019-02-04T03:43:10.032Z,-2.80
2019-02-04T03:44:07.500Z,-2.80
2019-02-04T03:45:05.562Z,-2.80
2019-02-04T03:46:07.247Z,-2.80
2019-02-04T03:47:05.254Z,-2.80
2019-02-04T03:48:07.912Z,-2.80
2019-02-04T03:49:08.102Z,-2.80
2019-02-04T03:50:05.064Z,-2.80
2019-02-04T03:51:05.139Z,-2.80
2019-02-04T03:52:07.753Z,-2.80
2019-02-04T03:53:04.695Z,-2.80
2019-02-04T03:54:07.337Z,-2.80
2019-02-04T03:55:05.264Z,-2.80
2019-02-04T03:56:05.429Z,-2.80
2019-02-04T03:57:05.247Z,-2.80
2019-02-04T03:58:07.942Z,-2.80
2019-02-04T03:59:07.382Z,-2.80
2019-02-04T04:00:05.335Z,-2.90
2019-02-04T04:01:05.518Z,-2.80
2019-02-04T04:02:05.633Z,-2.90
2019-02-04T04:03:04.788Z,-2.90
2019-02-04T04:04:04.985Z,-2.90
2019-02-04T04:05:07.345Z,-2.90
2019-02-04T04:06:05.423Z,-2.90
2019-02-04T04:07:08.007Z,-2.90
2019-02-04T04:08:07.540Z,-2.90
2019-02-04T04:09:08.068Z,-2.90
2019-02-04T04:10:12.714Z,-3.00
2019-02-04T04:11:04.658Z,-3.00
2019-02-04T04:12:12.308Z,-3.00
2019-02-04T04:13:05.222Z,-3.00
2019-02-04T04:14:05.343Z,-3.00
2019-02-04T04:15:08.079Z,-3.00
2019-02-04T04:16:05.098Z,-3.00
2019-02-04T04:17:07.745Z,-3.00
2019-02-04T04:18:15.005Z,-3.00
2019-02-04T04:19:05.082Z,-3.00
2019-02-04T04:20:05.110Z,-3.00
2019-02-04T04:21:07.282Z,-3.10
2019-02-04T04:22:05.330Z,-3.10
2019-02-04T04:23:05.751Z,-3.10
2019-02-04T04:24:07.359Z,-3.10
2019-02-04T04:25:05.306Z,-3.10
2019-02-04T04:26:08.058Z,-3.20
2019-02-04T04:27:07.570Z,-3.20
2019-02-04T04:28:05.417Z,-3.20
2019-02-04T04:29:05.418Z,-3.10
2019-02-04T04:30:09.982Z,-3.20
2019-02-04T04:31:04.938Z,-3.20
2019-02-04T04:32:07.665Z,-3.20
2019-02-04T04:33:08.139Z,-3.20
2019-02-04T04:34:05.083Z,-3.20
2019-02-04T04:35:07.803Z,-3.20
2019-02-04T04:36:04.798Z,-3.20
2019-02-04T04:37:04.940Z,-3.20
2019-02-04T04:38:07.578Z,-3.20
2019-02-04T04:39:05.583Z,-3.20
2019-02-04T04:40:07.319Z,-3.20
2019-02-04T04:41:05.283Z,-3.20
2019-02-04T04:42:10.637Z,-3.20
2019-02-04T04:43:05.655Z,-3.20
2019-02-04T04:44:05.276Z,-3.20
2019-02-04T04:45:05.510Z,-3.30
2019-02-04T04:46:05.734Z,-3.20
2019-02-04T04:47:07.314Z,-3.30
2019-02-04T04:48:07.702Z,-3.30
2019-02-04T04:49:05.663Z,-3.30
2019-02-04T04:50:05.260Z,-3.30
2019-02-04T04:51:04.768Z,-3.40
2019-02-04T04:52:05.523Z,-3.40
2019-02-04T04:53:05.560Z,-3.40
2019-02-04T04:54:08.103Z,-3.40
2019-02-04T04:55:07.704Z,-3.40
2019-02-04T04:56:04.662Z,-3.50
2019-02-04T04:57:04.716Z,-3.50
2019-02-04T04:58:07.263Z,-3.50
2019-02-04T04:59:07.879Z,-3.50
2019-02-04T05:00:07.570Z,-3.50
2019-02-04T05:01:08.033Z,-3.50
2019-02-04T05:02:04.961Z,-3.50
2019-02-04T05:03:04.956Z,-3.60
2019-02-04T05:04:05.120Z,-3.50
2019-02-04T05:05:05.170Z,-3.60
2019-02-04T05:06:07.692Z,-3.60
2019-02-04T05:07:05.613Z,-3.60
2019-02-04T05:08:05.367Z,-3.70
2019-02-04T05:09:05.414Z,-3.70
2019-02-04T05:10:08.135Z,-3.80
2019-02-04T05:11:05.034Z,-3.70
2019-02-04T05:12:05.146Z,-3.80
2019-02-04T05:13:07.732Z,-3.80
2019-02-04T05:14:07.329Z,-3.80
2019-02-04T05:15:05.179Z,-3.80
2019-02-04T05:16:04.973Z,-3.80
2019-02-04T05:17:05.055Z,-3.80
2019-02-04T05:18:07.640Z,-3.80
2019-02-04T05:19:08.093Z,-3.80
2019-02-04T05:20:07.548Z,-3.80
2019-02-04T05:21:07.969Z,-3.80
2019-02-04T05:22:07.547Z,-3.80
2019-02-04T05:23:08.197Z,-3.80
2019-02-04T05:24:04.672Z,-3.90
2019-02-04T05:25:05.235Z,-3.90
2019-02-04T05:26:05.403Z,-3.90
2019-02-04T05:27:05.445Z,-3.90
2019-02-04T05:28:05.715Z,-3.90
2019-02-04T05:29:04.901Z,-3.90
2019-02-04T05:30:07.469Z,-3.90
2019-02-04T05:31:05.473Z,-3.90
2019-02-04T05:32:05.434Z,-3.90
2019-02-04T05:33:13.305Z,-4.00
2019-02-04T05:34:07.833Z,-4.00
2019-02-04T05:35:04.813Z,-4.00
2019-02-04T05:36:07.485Z,-4.10
2019-02-04T05:37:05.525Z,-4.10
2019-02-04T05:38:05.661Z,-4.10
2019-02-04T05:39:04.798Z,-4.10
2019-02-04T05:40:04.869Z,-4.20
2019-02-04T05:41:05.150Z,-4.20
2019-02-04T05:42:05.228Z,-4.20
2019-02-04T05:43:05.291Z,-4.20
2019-02-04T05:44:08.325Z,-4.20
2019-02-04T05:45:07.868Z,-4.20
2019-02-04T05:46:04.853Z,-4.20
2019-02-04T05:47:07.705Z,-4.30
2019-02-04T05:48:07.969Z,-4.30
2019-02-04T05:49:04.949Z,-4.30
2019-02-04T05:50:10.204Z,-4.30
2019-02-04T05:51:05.369Z,-4.30
2019-02-04T05:52:15.711Z,-4.40
2019-02-04T05:53:08.597Z,-4.40
2019-02-04T05:54:05.544Z,-4.30
2019-02-04T05:55:10.099Z,-4.40
2019-02-04T05:56:04.841Z,-4.40
2019-02-04T05:57:04.945Z,-4.40
2019-02-04T05:58:05.232Z,-4.40
2019-02-04T05:59:05.377Z,-4.40
2019-02-04T06:00:04.953Z,-4.40
2019-02-04T06:01:07.562Z,-4.40
2019-02-04T06:02:05.564Z,-4.40
2019-02-04T06:03:05.295Z,-4.40
2019-02-04T06:04:07.968Z,-4.40
2019-02-04T06:05:04.867Z,-4.40
2019-02-04T06:06:10.122Z,-4.50
2019-02-04T06:07:05.069Z,-4.40
2019-02-04T06:08:05.303Z,-4.50
2019-02-04T06:09:05.449Z,-4.50
2019-02-04T06:10:05.659Z,-4.50
2019-02-04T06:11:05.633Z,-4.50
2019-02-04T06:12:07.298Z,-4.50
2019-02-04T06:13:05.362Z,-4.50
2019-02-04T06:14:05.598Z,-4.50
2019-02-04T06:15:04.810Z,-4.60
2019-02-04T06:16:04.901Z,-4.60
2019-02-04T06:17:05.052Z,-4.60
2019-02-04T06:18:05.192Z,-4.60
2019-02-04T06:19:04.948Z,-4.60
2019-02-04T06:20:05.217Z,-4.70
2019-02-04T06:21:05.520Z,-4.70
2019-02-04T06:22:05.621Z,-4.70
2019-02-04T06:23:04.713Z,-4.70
2019-02-04T06:24:04.924Z,-4.70
2019-02-04T06:25:07.639Z,-4.70
2019-02-04T06:26:10.677Z,-4.70
2019-02-04T06:27:10.145Z,-4.70
2019-02-04T06:28:05.427Z,-4.70
2019-02-04T06:29:05.616Z,-4.70
2019-02-04T06:30:04.727Z,-4.70
2019-02-04T06:31:04.880Z,-4.70
2019-02-04T06:32:07.551Z,-4.70
2019-02-04T06:33:05.574Z,-4.70
2019-02-04T06:34:07.509Z,-4.70
2019-02-04T06:35:05.231Z,-4.80
2019-02-04T06:36:05.402Z,-4.70
2019-02-04T06:37:05.550Z,-4.80
2019-02-04T06:38:05.591Z,-4.70
2019-02-04T06:39:07.369Z,-4.80
2019-02-04T06:40:05.360Z,-4.80
2019-02-04T06:41:10.509Z,-4.80
2019-02-04T06:42:05.470Z,-4.80
2019-02-04T06:43:08.208Z,-4.80
2019-02-04T06:44:05.236Z,-4.80
2019-02-04T06:45:08.288Z,-4.80
2019-02-04T06:46:05.224Z,-4.90
2019-02-04T06:47:05.403Z,-4.80
2019-02-04T06:48:05.514Z,-4.90
2019-02-04T06:49:12.166Z,-4.90
2019-02-04T06:50:09.954Z,-4.90
2019-02-04T06:51:12.373Z,-4.90
2019-02-04T06:52:05.397Z,-4.90
2019-02-04T06:53:05.552Z,-4.90
2019-02-04T06:54:05.799Z,-4.90
2019-02-04T06:55:04.898Z,-4.90
2019-02-04T06:56:04.995Z,-5.00
2019-02-04T06:57:05.098Z,-4.90
2019-02-04T06:58:07.242Z,-4.90
2019-02-04T06:59:05.166Z,-5.00
2019-02-04T07:00:05.316Z,-5.00
2019-02-04T07:01:05.415Z,-5.00
2019-02-04T07:02:08.165Z,-5.00
2019-02-04T07:03:05.164Z,-5.00
2019-02-04T07:04:05.278Z,-5.00
2019-02-04T07:05:05.302Z,-5.00
2019-02-04T07:06:07.495Z,-5.00
2019-02-04T07:07:07.944Z,-5.00
2019-02-04T07:08:04.861Z,-5.10
2019-02-04T07:09:04.872Z,-5.00
2019-02-04T07:10:05.069Z,-5.00
2019-02-04T07:11:05.202Z,-5.00
2019-02-04T07:12:05.400Z,-5.00
2019-02-04T07:13:08.007Z,-5.00
2019-02-04T07:14:10.711Z,-5.10
2019-02-04T07:15:07.339Z,-5.10
2019-02-04T07:16:05.411Z,-5.10
2019-02-04T07:17:05.652Z,-5.10
2019-02-04T07:18:04.835Z,-5.10
2019-02-04T07:19:04.901Z,-5.10
2019-02-04T07:20:07.407Z,-5.00
2019-02-04T07:21:05.459Z,-5.10
2019-02-04T07:22:08.020Z,-5.10
2019-02-04T07:23:05.025Z,-5.10
2019-02-04T07:24:05.155Z,-5.00
2019-02-04T07:25:07.847Z,-5.00
2019-02-04T07:26:09.902Z,-5.10
2019-02-04T07:27:07.316Z,-5.00
2019-02-04T07:28:05.296Z,-5.10
2019-02-04T07:29:04.979Z,-5.00
2019-02-04T07:30:05.727Z,-5.10
2019-02-04T07:31:04.833Z,-5.00
2019-02-04T07:32:10.174Z,-5.00
2019-02-04T07:33:05.291Z,-5.00
2019-02-04T07:34:05.515Z,-4.90
2019-02-04T07:35:05.776Z,-4.90
2019-02-04T07:36:04.901Z,-4.90
2019-02-04T07:37:04.981Z,-4.80
2019-02-04T07:38:07.564Z,-4.70
2019-02-04T07:39:05.547Z,-4.70
2019-02-04T07:40:05.736Z,-4.70
2019-02-04T07:41:04.985Z,-4.70
2019-02-04T07:42:10.156Z,-4.60
2019-02-04T07:43:05.052Z,-4.60
2019-02-04T07:44:08.140Z,-4.50
2019-02-04T07:45:05.062Z,-4.50
2019-02-04T07:46:10.165Z,-4.40
2019-02-04T07:47:05.016Z,-4.40
2019-02-04T07:48:05.058Z,-4.40
2019-02-04T07:49:05.154Z,-4.30
2019-02-04T07:50:05.334Z,-4.20
2019-02-04T07:51:05.421Z,-4.20
2019-02-04T07:52:07.633Z,-4.00
2019-02-04T07:53:05.590Z,-4.10
2019-02-04T07:54:05.678Z,-4.00
2019-02-04T07:55:04.685Z,-3.90
2019-02-04T07:56:04.754Z,-3.90
2019-02-04T07:57:04.888Z,-3.80
2019-02-04T07:58:07.447Z,-3.70
2019-02-04T07:59:05.356Z,-3.70
2019-02-04T08:00:07.519Z,-3.60
2019-02-04T08:01:05.521Z,-3.60
2019-02-04T08:02:05.623Z,-3.50
2019-02-04T08:03:07.425Z,-3.40
2019-02-04T08:04:10.472Z,-3.40
2019-02-04T08:05:05.483Z,-3.30
2019-02-04T08:06:05.564Z,-3.30
2019-02-04T08:07:08.197Z,-3.10
2019-02-04T08:08:04.706Z,-3.20
2019-02-04T08:09:07.245Z,-3.00
2019-02-04T08:10:07.714Z,-2.90
2019-02-04T08:11:07.274Z,-2.90
2019-02-04T08:12:05.209Z,-2.80
2019-02-04T08:13:07.887Z,-2.80
2019-02-04T08:14:07.448Z,-2.70
2019-02-04T08:15:08.073Z,-2.70
2019-02-04T08:16:04.761Z,-2.70
2019-02-04T08:17:07.349Z,-2.60
2019-02-04T08:18:05.291Z,-2.60
2019-02-04T08:19:08.051Z,-2.50
2019-02-04T08:20:05.010Z,-2.50
2019-02-04T08:21:05.077Z,-2.50
2019-02-04T08:22:05.169Z,-2.40
2019-02-04T08:23:05.315Z,-2.40
2019-02-04T08:24:07.866Z,-2.30
2019-02-04T08:25:04.839Z,-2.30
2019-02-04T08:26:04.854Z,-2.30
2019-02-04T08:27:07.493Z,-2.30
2019-02-04T08:28:08.100Z,-2.30
2019-02-04T08:29:10.072Z,-2.30
2019-02-04T08:30:05.154Z,-2.20
2019-02-04T08:31:04.853Z,-2.20
2019-02-04T08:32:04.911Z,-2.20
2019-02-04T08:33:04.955Z,-2.20
2019-02-04T08:34:05.093Z,-2.10
2019-02-04T08:35:05.392Z,-2.10
2019-02-04T08:36:08.157Z,-2.00
2019-02-04T08:37:05.158Z,-2.10
2019-02-04T08:38:10.358Z,-2.00
2019-02-04T08:39:05.578Z,-2.00
2019-02-04T08:40:04.737Z,-1.90
2019-02-04T08:41:04.823Z,-1.90
2019-02-04T08:42:05.001Z,-1.90
2019-02-04T08:43:05.236Z,-1.80
2019-02-04T08:44:05.355Z,-1.80
2019-02-04T08:45:05.526Z,-1.80
2019-02-04T08:46:04.976Z,-1.70
2019-02-04T08:47:07.594Z,-1.60
2019-02-04T08:48:05.667Z,-1.70
2019-02-04T08:49:07.539Z,-1.60
2019-02-04T08:50:05.552Z,-1.60
2019-02-04T08:51:08.220Z,-1.50
2019-02-04T08:52:05.284Z,-1.50
2019-02-04T08:53:05.529Z,-1.50
2019-02-04T08:54:07.844Z,-1.40
2019-02-04T08:55:04.782Z,-1.40
2019-02-04T08:56:04.841Z,-1.30
2019-02-04T08:57:05.096Z,-1.30
2019-02-04T08:58:05.198Z,-1.20
2019-02-04T08:59:07.905Z,-1.20
2019-02-04T09:00:04.878Z,-1.20
2019-02-04T09:01:08.058Z,-1.10
2019-02-04T09:02:09.856Z,-1.00
2019-02-04T09:03:04.775Z,-1.00
2019-02-04T09:04:04.862Z,-1.00
2019-02-04T09:05:05.281Z,-0.90
2019-02-04T09:06:05.556Z,-0.90
2019-02-04T09:07:05.758Z,-0.90
2019-02-04T09:08:04.914Z,-0.80
2019-02-04T09:09:07.324Z,-0.80
2019-02-04T09:10:05.316Z,-0.70
2019-02-04T09:11:08.091Z,-0.70
2019-02-04T09:12:05.076Z,-0.70
2019-02-04T09:13:05.437Z,-0.70
2019-02-04T09:14:05.650Z,-0.60
2019-02-04T09:15:04.785Z,-0.50
2019-02-04T09:16:04.775Z,-0.50
2019-02-04T09:17:04.878Z,-0.50
2019-02-04T09:18:04.965Z,-0.40
2019-02-04T09:19:05.309Z,-0.40
2019-02-04T09:20:09.871Z,-0.40
2019-02-04T09:21:05.536Z,-0.40
2019-02-04T09:22:05.594Z,-0.30
2019-02-04T09:23:06.167Z,-0.20
2019-02-04T09:24:07.590Z,-0.10
2019-02-04T09:25:05.547Z,-0.20
2019-02-04T09:26:05.653Z,-0.10
2019-02-04T09:27:07.280Z,0.00
2019-02-04T09:28:05.240Z,0.00
2019-02-04T09:29:07.944Z,0.10
2019-02-04T09:30:04.896Z,0.10
2019-02-04T09:31:04.989Z,0.20
2019-02-04T09:32:07.321Z,0.20
2019-02-04T09:33:05.429Z,0.20
2019-02-04T09:34:08.106Z,0.30
2019-02-04T09:35:05.106Z,0.30
2019-02-04T09:36:07.788Z,0.40
2019-02-04T09:37:09.813Z,0.40
2019-02-04T09:38:04.792Z,0.50
2019-02-04T09:39:07.564Z,0.50
2019-02-04T09:40:05.259Z,0.50
2019-02-04T09:41:05.348Z,0.60
2019-02-04T09:42:04.853Z,0.60
2019-02-04T09:43:04.951Z,0.70
2019-02-04T09:44:04.998Z,0.70
2019-02-04T09:45:04.662Z,0.70
2019-02-04T09:46:04.774Z,0.70
2019-02-04T09:47:08.185Z,0.80
2019-02-04T09:48:07.723Z,0.90
2019-02-04T09:49:08.117Z,0.90
2019-02-04T09:50:05.031Z,0.90
2019-02-04T09:51:05.255Z,0.90
2019-02-04T09:52:05.261Z,1.00
2019-02-04T09:53:05.350Z,1.00
2019-02-04T09:54:05.464Z,1.10
2019-02-04T09:55:07.754Z,1.10
2019-02-04T09:56:07.464Z,1.10
2019-02-04T09:57:05.361Z,1.20
2019-02-04T09:58:05.452Z,1.20
2019-02-04T09:59:08.276Z,1.30
2019-02-04T10:00:05.194Z,1.30
2019-02-04T10:01:07.853Z,1.40
2019-02-04T10:02:04.794Z,1.30
2019-02-04T10:03:07.774Z,1.40
2019-02-04T10:04:04.764Z,1.40
2019-02-04T10:05:07.373Z,1.50
2019-02-04T10:06:05.425Z,1.50
2019-02-04T10:07:07.951Z,1.60
2019-02-04T10:08:04.813Z,1.60
2019-02-04T10:09:04.951Z,1.60
2019-02-04T10:10:05.133Z,1.60
2019-02-04T10:11:07.415Z,1.70
2019-02-04T10:12:05.483Z,1.70
2019-02-04T10:13:07.965Z,1.70
2019-02-04T10:14:07.721Z,1.80
2019-02-04T10:15:04.804Z,1.80
2019-02-04T10:16:05.010Z,1.80
2019-02-04T10:17:05.504Z,1.90
2019-02-04T10:18:04.639Z,1.90
2019-02-04T10:19:07.296Z,2.00
2019-02-04T10:20:05.340Z,2.00
2019-02-04T10:21:08.542Z,2.10
2019-02-04T10:22:08.711Z,2.10
2019-02-04T10:23:04.922Z,2.10
2019-02-04T10:24:06.233Z,2.20
2019-02-04T10:25:05.947Z,2.20
2019-02-04T10:26:05.124Z,2.20
2019-02-04T10:27:07.818Z,2.30
2019-02-04T10:28:04.756Z,2.30
2019-02-04T10:29:04.905Z,2.30
2019-02-04T10:30:05.036Z,2.40
2019-02-04T10:31:05.171Z,2.40
2019-02-04T10:32:07.755Z,2.40
2019-02-04T10:33:04.890Z,2.50
2019-02-04T10:34:05.677Z,2.50
2019-02-04T10:35:16.327Z,2.50
2019-02-04T10:36:10.738Z,2.60
2019-02-04T10:37:07.291Z,2.60
2019-02-04T10:38:05.400Z,2.60
2019-02-04T10:39:08.123Z,2.70
2019-02-04T10:40:05.007Z,2.70
2019-02-04T10:41:05.219Z,2.70
2019-02-04T10:42:04.945Z,2.70
2019-02-04T10:43:07.760Z,2.70
2019-02-04T10:44:04.878Z,2.70
2019-02-04T10:45:05.145Z,2.70
2019-02-04T10:46:10.278Z,2.80
2019-02-04T10:47:05.447Z,2.80
2019-02-04T10:48:05.532Z,2.80
2019-02-04T10:49:05.755Z,2.80
2019-02-04T10:50:05.183Z,2.80
2019-02-04T10:51:05.425Z,2.80
2019-02-04T10:52:05.634Z,2.90
2019-02-04T10:53:04.726Z,2.80
2019-02-04T10:54:04.893Z,2.90
2019-02-04T10:55:04.682Z,2.90
2019-02-04T10:56:05.025Z,2.90
2019-02-04T10:57:05.194Z,2.90
2019-02-04T10:58:04.777Z,3.00
2019-02-04T10:59:04.919Z,3.00
2019-02-04T11:00:05.110Z,3.00
2019-02-04T11:01:05.448Z,3.00
2019-02-04T11:02:08.179Z,3.00
2019-02-04T11:03:05.121Z,3.00
2019-02-04T11:04:05.187Z,3.00
2019-02-04T11:05:05.662Z,3.10
2019-02-04T11:06:04.801Z,3.10
2019-02-04T11:07:07.504Z,3.10
2019-02-04T11:08:05.913Z,3.00
2019-02-04T11:09:04.994Z,3.10
2019-02-04T11:10:05.294Z,3.10
2019-02-04T11:11:05.462Z,3.10
2019-02-04T11:12:05.510Z,3.10
2019-02-04T11:13:05.201Z,3.10
2019-02-04T11:14:05.322Z,3.10
2019-02-04T11:15:05.572Z,3.10
2019-02-04T11:16:04.950Z,3.20
2019-02-04T11:17:07.666Z,3.10
2019-02-04T11:18:05.685Z,3.10
2019-02-04T11:19:08.044Z,3.20
2019-02-04T11:20:05.082Z,3.20
2019-02-04T11:21:04.877Z,3.20
2019-02-04T11:22:07.506Z,3.20
2019-02-04T11:23:08.024Z,3.30
2019-02-04T11:24:07.632Z,3.30
2019-02-04T11:25:08.132Z,3.30
2019-02-04T11:26:05.102Z,3.30
2019-02-04T11:27:13.030Z,3.30
2019-02-04T11:28:05.043Z,3.30
2019-02-04T11:29:04.730Z,3.40
2019-02-04T11:30:07.866Z,3.40
2019-02-04T11:31:05.046Z,3.40
2019-02-04T11:32:05.141Z,3.50
2019-02-04T11:33:05.461Z,3.40
2019-02-04T11:34:08.185Z,3.50
2019-02-04T11:35:05.273Z,3.50
2019-02-04T11:36:08.095Z,3.50
2019-02-04T11:37:07.417Z,3.50
2019-02-04T11:38:10.673Z,3.50
2019-02-04T11:39:07.331Z,3.50
2019-02-04T11:40:05.422Z,3.60
2019-02-04T11:41:08.077Z,3.60
2019-02-04T11:42:10.168Z,3.60
2019-02-04T11:43:05.192Z,3.60
2019-02-04T11:44:05.417Z,3.60
2019-02-04T11:45:10.614Z,3.60
2019-02-04T11:46:05.553Z,3.60
2019-02-04T11:47:08.327Z,3.60
2019-02-04T11:48:05.274Z,3.60
2019-02-04T11:49:05.453Z,3.60
2019-02-04T11:50:04.949Z,3.60
2019-02-04T11:51:09.501Z,3.60
2019-02-04T11:52:05.075Z,3.60
2019-02-04T11:53:05.157Z,3.60
2019-02-04T11:54:07.699Z,3.60
2019-02-04T11:55:05.641Z,3.60
2019-02-04T11:56:04.818Z,3.60
2019-02-04T11:57:04.923Z,3.60
2019-02-04T11:58:07.655Z,3.60
2019-02-04T11:59:05.114Z,3.60
2019-02-04T12:00:05.522Z,3.60
2019-02-04T12:01:08.055Z,3.60
2019-02-04T12:02:07.551Z,3.60
2019-02-04T12:03:08.083Z,3.60
2019-02-04T12:04:08.799Z,3.50
2019-02-04T12:05:04.822Z,3.50
2019-02-04T12:06:07.614Z,3.60
2019-02-04T12:07:05.638Z,3.50
2019-02-04T12:08:05.433Z,3.60
2019-02-04T12:09:05.627Z,3.50
2019-02-04T12:10:05.725Z,3.50
2019-02-04T12:11:05.139Z,3.50
2019-02-04T12:12:07.711Z,3.50
2019-02-04T12:13:05.717Z,3.50
2019-02-04T12:14:07.471Z,3.50
2019-02-04T12:15:05.483Z,3.50
2019-02-04T12:16:07.658Z,3.50
2019-02-04T12:17:05.585Z,3.50
2019-02-04T12:18:06.207Z,3.50
2019-02-04T12:19:05.276Z,3.50
2019-02-04T12:20:07.793Z,3.50
2019-02-04T12:21:04.707Z,3.50
2019-02-04T12:22:07.400Z,3.50
2019-02-04T12:23:10.452Z,3.50
2019-02-04T12:24:07.452Z,3.50
2019-02-04T12:25:07.933Z,3.50
2019-02-04T12:26:04.958Z,3.50
2019-02-04T12:27:05.099Z,3.50
2019-02-04T12:28:05.254Z,3.50
2019-02-04T12:29:05.377Z,3.50
2019-02-04T12:30:05.000Z,3.50
2019-02-04T12:31:08.037Z,3.50
2019-02-04T12:32:05.489Z,3.50
2019-02-04T12:33:05.644Z,3.50
2019-02-04T12:34:04.735Z,3.50
2019-02-04T12:35:07.335Z,3.50
2019-02-04T12:36:05.217Z,3.40
2019-02-04T12:37:05.215Z,3.40
2019-02-04T12:38:05.267Z,3.40
2019-02-04T12:39:04.923Z,3.40
2019-02-04T12:40:07.438Z,3.40
2019-02-04T12:41:05.367Z,3.40
2019-02-04T12:42:05.417Z,3.40
2019-02-04T12:43:07.065Z,3.40
2019-02-04T12:44:05.223Z,3.40
2019-02-04T12:45:05.384Z,3.40
2019-02-04T12:46:05.483Z,3.30
2019-02-04T12:47:07.668Z,3.30
2019-02-04T12:48:05.622Z,3.30
2019-02-04T12:49:04.905Z,3.30
2019-02-04T12:50:12.593Z,3.30
2019-02-04T12:51:05.556Z,3.30
2019-02-04T12:52:08.138Z,3.30
2019-02-04T12:53:05.038Z,3.30
2019-02-04T12:54:07.784Z,3.30
2019-02-04T12:55:07.863Z,3.30
2019-02-04T12:56:07.335Z,3.30
2019-02-04T12:57:05.348Z,3.30
2019-02-04T12:58:05.392Z,3.30
2019-02-04T12:59:07.979Z,3.30